Time;durP1;ratioP1;P1;durP2;ratioP2;P2;SDS_P1;SDS_P2;PMS_P1;PMS_P2;Temp;Humidity;BMP_temperature;BMP_pressure;BME280_temperature;BME280_humidity;BME280_pressure;Samples;Min_cycle;Max_cycle;Signal;HPM_P1;HPM_P2
2021/06/27 00:00:17;;;;;;;9.88;6.20;;;;;;;15.75;98.50;93126.55;1842112;77;21068;-83
2021/06/27 00:02:43;;;;;;;9.10;6.90;;;;;;;15.76;98.18;93133.58;1848601;77;21655;-83
2021/06/27 00:05:11;;;;;;;13.58;6.55;;;;;;;15.77;97.96;93132.98;1855649;77;21735;-80
2021/06/27 00:07:38;;;;;;;11.78;6.65;;;;;;;15.81;97.79;93141.10;1856310;77;20952;-81
2021/06/27 00:10:09;;;;;;;10.05;7.20;;;;;;;15.84;97.50;93141.61;1839124;78;21045;-83
2021/06/27 00:12:35;;;;;;;10.95;7.35;;;;;;;15.85;96.54;93148.02;1854080;77;21530;-82
2021/06/27 00:15:17;;;;;;;10.48;6.75;;;;;;;15.84;95.30;93151.97;1855934;77;21005;-83
2021/06/27 00:17:44;;;;;;;7.55;6.78;;;;;;;15.79;94.35;93159.34;1854526;77;21071;-82
2021/06/27 00:20:17;;;;;;;8.78;7.12;;;;;;;15.69;94.34;93157.69;1849390;77;21100;-79
2021/06/27 00:22:44;;;;;;;8.03;6.42;;;;;;;15.64;94.33;93159.53;1839469;77;23707;-83
2021/06/27 00:25:12;;;;;;;9.63;6.97;;;;;;;15.63;94.57;93162.12;1854948;77;21021;-79
2021/06/27 00:27:40;;;;;;;10.53;6.60;;;;;;;15.62;94.65;93156.48;1855180;77;21582;-81
2021/06/27 00:30:11;;;;;;;8.23;6.12;;;;;;;15.58;94.79;93160.69;1844242;77;21603;-79
2021/06/27 00:32:38;;;;;;;7.75;6.50;;;;;;;15.51;95.12;93165.75;1850364;77;21049;-78
2021/06/27 00:35:06;;;;;;;7.15;5.78;;;;;;;15.49;95.57;93161.28;1854001;77;21559;-85
2021/06/27 00:37:32;;;;;;;6.97;6.08;;;;;;;15.48;95.75;93165.23;1838056;77;21016;-80
2021/06/27 00:39:59;;;;;;;6.72;5.87;;;;;;;15.46;95.74;93171.00;1855778;77;21014;-86
2021/06/27 00:42:26;;;;;;;7.25;6.03;;;;;;;15.40;95.99;93160.39;1855492;77;21116;-85
2021/06/27 00:44:52;;;;;;;9.05;6.58;;;;;;;15.37;96.21;93158.50;1854799;77;21029;-81
2021/06/27 00:47:32;;;;;;;13.05;7.67;;;;;;;15.34;96.51;93160.73;1849203;77;21029;-81
2021/06/27 00:50:00;;;;;;;15.58;7.60;;;;;;;15.38;96.69;93162.17;1840600;76;21065;-84
2021/06/27 00:52:27;;;;;;;10.85;7.67;;;;;;;15.43;96.82;93163.64;1855781;77;21478;-82
2021/06/27 00:54:53;;;;;;;11.40;6.72;;;;;;;15.50;96.57;93175.78;1838424;77;21075;-84
2021/06/27 00:57:21;;;;;;;8.58;6.30;;;;;;;15.53;96.29;93170.78;1852632;77;21017;-81
2021/06/27 00:59:48;;;;;;;9.10;6.08;;;;;;;15.57;96.10;93174.80;1850172;76;21034;-82
2021/06/27 01:02:14;;;;;;;6.97;6.30;;;;;;;15.60;95.87;93174.70;1842055;77;21052;-79
2021/06/27 01:04:41;;;;;;;9.03;6.45;;;;;;;15.65;95.70;93176.97;1855344;77;21036;-81
2021/06/27 01:07:08;;;;;;;8.53;6.37;;;;;;;15.68;95.49;93169.25;1837668;78;21599;-81
2021/06/27 01:09:35;;;;;;;8.15;6.30;;;;;;;15.71;95.29;93174.45;1850503;77;21029;-81
2021/06/27 01:12:02;;;;;;;7.00;6.10;;;;;;;15.66;94.95;93170.88;1845418;77;21050;-82
2021/06/27 01:14:28;;;;;;;9.20;6.22;;;;;;;15.59;94.93;93170.44;1844054;77;21046;-82
2021/06/27 01:16:55;;;;;;;10.13;5.75;;;;;;;15.54;95.03;93169.00;1856255;77;21041;-79
2021/06/27 01:19:21;;;;;;;10.28;6.83;;;;;;;15.55;94.89;93171.90;1854756;77;21119;-80
2021/06/27 01:21:52;;;;;;;6.97;6.28;;;;;;;15.57;94.84;93166.00;1842118;77;21033;-75
2021/06/27 01:24:20;;;;;;;9.30;6.67;;;;;;;15.60;94.88;93163.74;1855202;77;20990;-82
2021/06/27 01:26:47;;;;;;;6.22;5.62;;;;;;;15.56;94.95;93160.33;1857126;77;21618;-82
2021/06/27 01:29:16;;;;;;;5.87;5.28;;;;;;;15.48;95.13;93146.05;1858493;77;21017;-75
2021/06/27 01:31:46;;;;;;;8.90;6.40;;;;;;;15.40;95.43;93159.78;1854978;77;21117;-76
2021/06/27 01:34:13;;;;;;;9.35;6.08;;;;;;;15.33;95.98;93152.34;1857241;77;21050;-76
2021/06/27 01:36:39;;;;;;;10.20;6.03;;;;;;;15.32;96.28;93154.33;1856413;77;21069;-79
2021/06/27 01:39:06;;;;;;;5.70;5.20;;;;;;;15.36;96.33;93155.60;1805263;78;21051;-77
2021/06/27 01:41:33;;;;;;;7.80;5.83;;;;;;;15.39;96.25;93157.48;1830875;77;21037;-79
2021/06/27 01:44:00;;;;;;;8.23;5.80;;;;;;;15.40;96.17;93160.39;1848052;77;21109;-83
2021/06/27 01:46:27;;;;;;;6.30;5.65;;;;;;;15.41;96.08;93169.53;1777530;80;21026;-81
2021/06/27 01:48:53;;;;;;;7.92;5.67;;;;;;;15.40;95.51;93165.26;1837671;77;20971;-78
2021/06/27 01:51:20;;;;;;;7.40;4.83;;;;;;;15.39;94.98;93162.97;1835388;77;21066;-84
2021/06/27 01:53:46;;;;;;;8.13;5.67;;;;;;;15.36;94.52;93161.08;1809567;77;21058;-81
2021/06/27 01:56:13;;;;;;;9.70;6.25;;;;;;;15.25;94.34;93159.98;1842394;77;21230;-83
2021/06/27 01:58:50;;;;;;;8.70;5.72;;;;;;;15.17;94.70;93158.64;1827635;78;21032;-82
2021/06/27 02:01:25;;;;;;;7.28;6.10;;;;;;;15.14;94.86;93154.02;1842759;77;21760;-82
2021/06/27 02:03:52;;;;;;;7.22;5.40;;;;;;;15.11;95.07;93163.08;1829420;77;21062;-83
2021/06/27 02:06:20;;;;;;;6.75;5.50;;;;;;;15.05;95.64;93163.61;1836473;77;21717;-82
2021/06/27 02:08:48;;;;;;;7.55;6.17;;;;;;;15.08;95.97;93167.44;1838790;77;21042;-83
2021/06/27 02:11:16;;;;;;;8.93;5.92;;;;;;;15.11;95.94;93159.73;1828237;77;21073;-82
2021/06/27 02:13:43;;;;;;;6.83;5.05;;;;;;;15.14;95.90;93165.73;1848526;77;21026;-79
2021/06/27 02:16:09;;;;;;;6.87;5.45;;;;;;;15.13;95.85;93159.33;1831411;77;21002;-82
2021/06/27 02:18:40;;;;;;;7.20;5.35;;;;;;;15.05;96.15;93157.37;1839023;77;21037;-83
2021/06/27 02:21:11;;;;;;;6.28;5.35;;;;;;;15.03;96.39;93155.05;1812412;77;21260;-80
2021/06/27 02:23:39;;;;;;;6.22;4.70;;;;;;;15.05;96.15;93153.27;1792925;77;21054;-81
2021/06/27 02:26:05;;;;;;;6.70;5.05;;;;;;;15.06;96.18;93157.53;1844046;77;21045;-80
2021/06/27 02:28:32;;;;;;;5.60;5.00;;;;;;;15.05;96.05;93160.88;1826358;78;21054;-80
2021/06/27 02:31:00;;;;;;;6.75;4.92;;;;;;;15.04;95.93;93160.71;1839927;77;21419;-84
2021/06/27 02:33:27;;;;;;;9.65;5.37;;;;;;;15.00;95.85;93170.95;1806045;77;21080;-81
2021/06/27 02:35:54;;;;;;;6.60;5.28;;;;;;;14.98;95.85;93168.49;1796813;77;21022;-77
2021/06/27 02:38:20;;;;;;;6.55;4.60;;;;;;;14.99;95.56;93171.39;1845464;77;21010;-77
2021/06/27 02:40:46;;;;;;;7.08;5.45;;;;;;;14.99;95.32;93176.27;1834776;78;21054;-79
2021/06/27 02:43:14;;;;;;;12.15;6.80;;;;;;;14.99;94.97;93177.64;1840846;77;21540;-82
2021/06/27 02:45:41;;;;;;;10.25;6.20;;;;;;;15.00;95.00;93181.14;1800617;77;21158;-82
2021/06/27 02:48:08;;;;;;;11.73;6.17;;;;;;;14.95;94.84;93178.33;1801853;77;21041;-80
2021/06/27 02:50:36;;;;;;;5.37;4.75;;;;;;;14.88;95.01;93179.86;1840214;77;21097;-85
2021/06/27 02:53:03;;;;;;;4.72;4.22;;;;;;;14.80;95.10;93183.98;1825803;78;21011;-82
2021/06/27 02:55:31;;;;;;;5.40;3.70;;;;;;;14.74;95.25;93189.20;1843098;77;21096;-79
2021/06/27 02:57:57;;;;;;;4.10;3.65;;;;;;;14.70;95.48;93191.22;1831419;77;21105;-81
2021/06/27 03:00:24;;;;;;;9.58;5.22;;;;;;;14.70;95.42;93188.48;1834625;77;21391;-78
2021/06/27 03:02:51;;;;;;;6.37;4.17;;;;;;;14.68;95.47;93186.80;1840846;77;21065;-79
2021/06/27 03:05:18;;;;;;;17.80;9.33;;;;;;;14.68;95.32;93189.53;1830214;77;21007;-81
2021/06/27 03:07:44;;;;;;;11.22;7.37;;;;;;;14.71;94.82;93190.05;1846870;77;21005;-78
2021/06/27 03:10:14;;;;;;;5.72;4.65;;;;;;;14.73;94.72;93193.72;1791317;77;22110;-79
2021/06/27 03:12:43;;;;;;;5.72;4.47;;;;;;;14.75;94.38;93195.44;1801960;79;20914;-79
2021/06/27 03:15:13;;;;;;;5.87;5.10;;;;;;;14.79;94.32;93196.89;1805419;79;21500;-82
2021/06/27 03:17:39;;;;;;;4.45;3.95;;;;;;;14.77;94.06;93199.27;1805890;79;21026;-79
2021/06/27 03:20:08;;;;;;;5.62;4.05;;;;;;;14.78;94.26;93193.20;1806503;79;21097;-80
2021/06/27 03:22:36;;;;;;;3.70;3.40;;;;;;;14.81;94.43;93184.91;1805637;79;21144;-80
2021/06/27 03:25:03;;;;;;;4.15;3.60;;;;;;;14.87;94.32;93187.15;1805016;79;21073;-82
2021/06/27 03:27:30;;;;;;;4.28;3.87;;;;;;;14.85;94.26;93186.19;1805565;79;21026;-78
2021/06/27 03:29:57;;;;;;;5.92;5.33;;;;;;;14.87;94.20;93186.55;1806774;79;21101;-83
2021/06/27 03:32:23;;;;;;;5.85;4.40;;;;;;;14.92;93.91;93186.63;1810313;79;21037;-81
2021/06/27 03:34:50;;;;;;;8.48;4.95;;;;;;;14.93;93.90;93190.89;1805266;79;21149;-85
2021/06/27 03:37:16;;;;;;;7.60;4.80;;;;;;;14.89;93.52;93187.47;1853819;76;20986;-82
2021/06/27 03:39:43;;;;;;;8.05;5.58;;;;;;;14.85;93.70;93182.69;1810299;77;21049;-83
2021/06/27 03:42:10;;;;;;;7.08;4.95;;;;;;;14.80;93.38;93188.08;1800703;79;21269;-77
2021/06/27 03:44:38;;;;;;;9.13;4.47;;;;;;;14.72;92.86;93192.19;1803457;79;21053;-75
2021/06/27 03:47:04;;;;;;;5.85;4.20;;;;;;;14.61;93.08;93183.45;1809139;79;22063;-75
2021/06/27 03:49:31;;;;;;;4.85;3.85;;;;;;;14.56;93.48;93193.71;1847748;77;20998;-76
2021/06/27 03:51:57;;;;;;;4.95;3.90;;;;;;;14.49;93.38;93185.66;1831725;76;21619;-78
2021/06/27 03:54:24;;;;;;;6.08;4.25;;;;;;;14.42;93.76;93185.02;1784636;79;21058;-77
2021/06/27 03:56:50;;;;;;;4.62;4.20;;;;;;;14.41;94.36;93186.22;1809439;78;21030;-77
2021/06/27 03:59:16;;;;;;;8.43;4.80;;;;;;;14.51;95.02;93181.89;1849695;77;21050;-79
2021/06/27 04:01:43;;;;;;;4.58;3.62;;;;;;;14.70;95.18;93184.38;1785327;77;21541;-81
2021/06/27 04:04:09;;;;;;;5.08;3.67;;;;;;;14.85;93.80;93178.58;1844748;76;21108;-80
2021/06/27 04:06:38;;;;;;;6.17;3.77;;;;;;;14.89;93.07;93179.27;1813810;78;21050;-82
2021/06/27 04:09:05;;;;;;;3.90;3.00;;;;;;;14.96;92.84;93182.59;1837916;76;21050;-79
2021/06/27 04:11:32;;;;;;;5.25;2.83;;;;;;;15.02;91.69;93180.89;1811999;78;21117;-80
2021/06/27 04:13:59;;;;;;;3.72;2.80;;;;;;;15.08;90.16;93180.36;1866773;76;21520;-81
2021/06/27 04:16:28;;;;;;;3.55;3.20;;;;;;;15.13;89.42;93186.71;1820580;76;21134;-82
2021/06/27 04:18:54;;;;;;;3.83;2.90;;;;;;;15.29;89.78;93188.05;1788259;77;21113;-78
2021/06/27 04:21:21;;;;;;;6.90;3.25;;;;;;;15.58;89.78;93188.09;1787370;79;21293;-77
2021/06/27 04:23:47;;;;;;;3.98;2.70;;;;;;;15.87;88.94;93190.06;1814592;79;21136;-82
2021/06/27 04:26:14;;;;;;;3.55;3.22;;;;;;;16.11;88.31;93187.23;1773668;80;21140;-80
2021/06/27 04:28:41;;;;;;;3.40;2.87;;;;;;;16.31;86.40;93180.19;1773518;80;21066;-77
2021/06/27 04:31:08;;;;;;;2.70;2.50;;;;;;;16.51;83.93;93182.14;1766415;79;21639;-79
2021/06/27 04:33:35;;;;;;;3.00;2.80;;;;;;;16.67;83.64;93183.24;1808779;79;21054;-82
2021/06/27 04:36:02;;;;;;;4.03;3.58;;;;;;;16.75;82.89;93180.47;1809570;79;21108;-77
2021/06/27 04:38:29;;;;;;;3.58;2.75;;;;;;;16.74;82.75;93183.81;1796070;77;21045;-81
2021/06/27 04:40:57;;;;;;;2.90;2.58;;;;;;;16.69;82.89;93182.18;1809468;77;21057;-79
2021/06/27 04:43:24;;;;;;;2.98;2.67;;;;;;;16.63;82.46;93180.61;1782976;79;21046;-82
2021/06/27 04:45:50;;;;;;;3.10;2.80;;;;;;;16.64;81.67;93182.74;1812578;76;21006;-76
2021/06/27 04:48:17;;;;;;;3.15;2.85;;;;;;;16.68;81.47;93173.18;1867767;76;21085;-78
2021/06/27 04:50:45;;;;;;;3.80;3.00;;;;;;;16.72;81.40;93177.19;1798504;79;21021;-79
2021/06/27 04:53:12;;;;;;;2.72;2.52;;;;;;;16.79;80.95;93178.38;1777306;79;21014;-81
2021/06/27 04:55:39;;;;;;;3.60;3.30;;;;;;;16.86;81.12;93176.02;1799867;79;21054;-82
2021/06/27 04:58:06;;;;;;;5.08;2.98;;;;;;;16.94;80.11;93175.95;1806875;79;21045;-77
2021/06/27 05:00:33;;;;;;;3.42;3.00;;;;;;;17.05;79.69;93176.98;1802725;79;21098;-78
2021/06/27 05:03:01;;;;;;;4.90;3.58;;;;;;;17.13;79.38;93171.41;1774557;76;21710;-85
2021/06/27 05:05:28;;;;;;;5.42;3.27;;;;;;;17.17;79.30;93176.94;1870357;76;21001;-82
2021/06/27 05:07:55;;;;;;;5.00;3.17;;;;;;;17.14;79.00;93177.82;1813976;76;21389;-85
2021/06/27 05:10:22;;;;;;;4.30;3.90;;;;;;;17.09;78.49;93172.13;1828043;76;21121;-77
2021/06/27 05:12:49;;;;;;;4.45;3.30;;;;;;;17.07;77.98;93175.91;1843659;76;21893;-80
2021/06/27 05:15:16;;;;;;;4.75;4.12;;;;;;;17.01;78.48;93180.45;1864263;75;21023;-80
2021/06/27 05:17:43;;;;;;;4.50;3.60;;;;;;;16.96;78.57;93184.50;1805632;78;21045;-78
2021/06/27 05:20:11;;;;;;;3.58;3.27;;;;;;;16.90;78.72;93182.16;1859237;76;21010;-81
2021/06/27 05:22:38;;;;;;;3.85;3.55;;;;;;;16.84;78.61;93189.41;1842189;76;21045;-82
2021/06/27 05:25:07;;;;;;;6.17;3.52;;;;;;;16.81;78.88;93190.28;1750505;79;21110;-82
2021/06/27 05:27:36;;;;;;;3.67;3.35;;;;;;;16.77;79.34;93191.76;1791778;79;21010;-81
2021/06/27 05:30:05;;;;;;;3.80;3.50;;;;;;;16.73;80.00;93193.23;1788680;79;21205;-79
2021/06/27 05:32:32;;;;;;;4.08;3.10;;;;;;;16.70;80.29;93190.00;1802063;79;21071;-83
2021/06/27 05:34:58;;;;;;;3.85;3.10;;;;;;;16.65;80.26;93200.73;1765150;79;21033;-85
2021/06/27 05:37:25;;;;;;;4.20;3.80;;;;;;;16.61;80.43;93202.22;1837579;76;21104;-81
2021/06/27 05:39:52;;;;;;;3.87;2.92;;;;;;;16.59;81.18;93205.26;1838217;76;21019;-80
2021/06/27 05:42:20;;;;;;;3.80;3.20;;;;;;;16.59;81.37;93206.62;1792785;78;21058;-81
2021/06/27 05:44:47;;;;;;;5.85;3.15;;;;;;;16.58;82.00;93209.95;1812775;76;21100;-81
2021/06/27 05:47:13;;;;;;;5.05;3.37;;;;;;;16.57;81.81;93202.94;1792684;78;21502;-80
2021/06/27 05:49:40;;;;;;;5.28;3.50;;;;;;;16.56;80.85;93207.50;1810733;76;21038;-79
2021/06/27 05:52:06;;;;;;;4.95;3.60;;;;;;;16.56;80.58;93208.88;1829497;76;21105;-78
2021/06/27 05:54:33;;;;;;;4.75;3.62;;;;;;;16.57;81.03;93212.54;1841998;77;21002;-78
2021/06/27 05:57:00;;;;;;;3.10;2.90;;;;;;;16.56;80.36;93212.99;1834868;78;21030;-75
2021/06/27 05:59:27;;;;;;;3.58;3.27;;;;;;;16.54;79.89;93212.04;1818765;77;21047;-78
2021/06/27 06:01:54;;;;;;;4.42;3.80;;;;;;;16.52;79.77;93213.09;1852881;75;21116;-79
2021/06/27 06:04:20;;;;;;;3.75;3.20;;;;;;;16.53;80.48;93213.25;1876734;75;21089;-80
2021/06/27 06:06:48;;;;;;;4.08;3.67;;;;;;;16.52;80.07;93213.09;1849587;76;21037;-77
2021/06/27 06:09:15;;;;;;;4.80;2.75;;;;;;;16.54;80.52;93215.39;1790362;78;21158;-78
2021/06/27 06:12:11;;;;;;;3.72;3.42;;;;;;;16.58;79.45;93212.70;1789186;79;20973;-82
2021/06/27 06:16:06;;;;;;;3.60;3.30;;;;;;;16.70;80.14;93213.33;1837625;76;22791;-79
2021/06/27 06:18:37;;;;;;;5.47;4.00;;;;;;;16.70;80.21;93224.31;1777972;78;21520;-82
2021/06/27 06:21:04;;;;;;;5.17;3.70;;;;;;;16.70;80.62;93218.82;1795953;79;21878;-81
2021/06/27 06:23:30;;;;;;;6.72;4.45;;;;;;;16.72;80.91;93209.53;1796719;79;21042;-84
2021/06/27 06:25:57;;;;;;;3.47;3.22;;;;;;;16.73;80.70;93208.34;1784120;77;21086;-80
2021/06/27 06:28:24;;;;;;;3.72;3.27;;;;;;;16.77;80.83;93211.59;1850990;76;21265;-77
2021/06/27 06:30:50;;;;;;;3.47;3.17;;;;;;;16.79;80.71;93218.80;1832309;75;21031;-80
2021/06/27 06:33:17;;;;;;;4.08;3.50;;;;;;;16.79;79.82;93216.05;1793943;77;21038;-81
2021/06/27 06:36:52;;;;;;;6.70;3.47;;;;;;;16.84;80.43;93205.88;1838183;77;22677;-78
2021/06/27 06:39:19;;;;;;;3.62;3.33;;;;;;;16.83;80.67;93220.82;1798736;77;21656;-81
2021/06/27 06:41:46;;;;;;;4.05;3.65;;;;;;;16.83;81.21;93215.33;1779764;78;22316;-77
2021/06/27 06:44:13;;;;;;;7.65;3.80;;;;;;;16.85;81.16;93206.03;1777378;79;20893;-83
2021/06/27 06:46:41;;;;;;;3.58;3.02;;;;;;;16.86;80.85;93208.36;1784562;79;21042;-80
2021/06/27 06:49:08;;;;;;;6.67;3.35;;;;;;;16.89;80.06;93212.97;1772503;79;21098;-83
2021/06/27 06:51:35;;;;;;;6.00;4.17;;;;;;;16.90;80.59;93217.25;1770030;78;21136;-83
2021/06/27 06:54:02;;;;;;;8.93;4.72;;;;;;;16.92;80.93;93218.17;1800755;77;22172;-78
2021/06/27 06:56:29;;;;;;;11.73;6.60;;;;;;;16.91;81.03;93218.78;1807876;77;21069;-81
2021/06/27 06:58:56;;;;;;;6.42;4.47;;;;;;;16.93;81.30;93219.73;1806183;77;20926;-80
2021/06/27 07:01:24;;;;;;;5.03;3.87;;;;;;;16.94;81.83;93226.75;1826481;77;21135;-80
2021/06/27 07:03:50;;;;;;;6.12;3.98;;;;;;;16.95;82.00;93223.55;1816896;77;21971;-80
2021/06/27 07:06:19;;;;;;;4.70;4.17;;;;;;;16.95;81.51;93229.05;1776507;77;21075;-83
2021/06/27 07:08:46;;;;;;;5.62;4.30;;;;;;;16.96;80.58;93230.61;1772941;78;21092;-78
2021/06/27 07:11:13;;;;;;;4.37;3.98;;;;;;;16.98;80.18;93230.92;1743031;80;21036;-80
2021/06/27 07:13:41;;;;;;;5.10;3.95;;;;;;;17.01;79.72;93229.28;1754312;77;21069;-80
2021/06/27 07:16:09;;;;;;;4.97;4.47;;;;;;;17.04;80.42;93233.89;1823319;77;21356;-78
2021/06/27 07:18:37;;;;;;;3.83;3.55;;;;;;;17.06;80.45;93230.09;1774422;80;21538;-83
2021/06/27 07:21:10;;;;;;;8.48;5.25;;;;;;;17.11;80.43;93231.50;1734815;81;21113;-79
2021/06/27 07:23:45;;;;;;;6.17;4.90;;;;;;;17.17;79.17;93233.88;1771814;80;20951;-83
2021/06/27 07:26:37;;;;;;;5.53;4.97;;;;;;;17.21;79.38;93235.90;1760423;80;21316;-81
2021/06/27 07:29:04;;;;;;;6.65;5.12;;;;;;;17.26;79.74;93235.33;1828646;77;22330;-79
2021/06/27 07:31:31;;;;;;;8.70;5.37;;;;;;;17.31;78.79;93240.90;1820512;77;21812;-81
2021/06/27 07:33:57;;;;;;;4.62;4.15;;;;;;;17.34;78.37;93239.99;1826342;77;21544;-80
2021/06/27 07:36:26;;;;;;;7.78;5.58;;;;;;;17.38;77.79;93241.44;1816824;77;21049;-80
2021/06/27 07:38:53;;;;;;;6.53;5.15;;;;;;;17.40;78.30;93244.49;1757563;78;21025;-83
2021/06/27 07:41:19;;;;;;;6.97;5.40;;;;;;;17.43;78.45;93241.47;1774481;78;21520;-81
2021/06/27 07:43:50;;;;;;;7.45;4.83;;;;;;;17.43;78.26;93240.86;1816893;77;21087;-79
2021/06/27 07:46:16;;;;;;;4.33;3.92;;;;;;;17.42;78.54;93239.95;1808565;77;21065;-79
2021/06/27 07:48:42;;;;;;;4.20;3.85;;;;;;;17.43;78.65;93242.84;1784455;78;21674;-83
2021/06/27 07:51:09;;;;;;;4.25;3.83;;;;;;;17.46;78.99;93240.59;1777014;79;21049;-81
2021/06/27 07:53:36;;;;;;;4.22;3.85;;;;;;;17.47;79.09;93231.89;1794439;77;20954;-81
2021/06/27 07:56:04;;;;;;;4.30;3.90;;;;;;;17.52;78.57;93232.55;1832909;77;21127;-78
2021/06/27 07:58:34;;;;;;;4.90;3.80;;;;;;;17.56;77.92;93242.20;1781011;79;21104;-80
2021/06/27 08:01:02;;;;;;;4.05;3.65;;;;;;;17.61;77.21;93232.64;1821964;77;21251;-79
2021/06/27 08:03:30;;;;;;;5.92;3.70;;;;;;;17.68;77.70;93233.78;1780034;78;21077;-78
2021/06/27 08:05:58;;;;;;;3.85;3.55;;;;;;;17.71;77.64;93234.23;1755282;79;21023;-81
2021/06/27 08:08:29;;;;;;;3.98;3.40;;;;;;;17.72;78.01;93238.55;1749603;80;21172;-78
2021/06/27 08:10:56;;;;;;;4.62;4.12;;;;;;;17.73;77.62;93237.33;1755090;79;21695;-80
2021/06/27 08:13:22;;;;;;;5.45;4.05;;;;;;;17.75;77.64;93235.50;1741307;80;20990;-82
2021/06/27 08:15:50;;;;;;;4.87;4.05;;;;;;;17.77;77.41;93243.50;1778741;78;21033;-80
2021/06/27 08:18:20;;;;;;;5.53;4.47;;;;;;;17.79;77.06;93238.34;1799938;78;21097;-80
2021/06/27 08:20:54;;;;;;;4.75;3.90;;;;;;;17.81;77.16;93246.13;1743818;80;21357;-83
2021/06/27 08:24:31;;;;;;;5.95;4.53;;;;;;;17.84;76.36;93248.77;1881527;76;22652;-79
2021/06/27 08:26:59;;;;;;;4.58;3.83;;;;;;;17.77;76.47;93250.98;1785593;77;21017;-78
2021/06/27 08:29:26;;;;;;;4.65;3.83;;;;;;;17.78;74.94;93251.91;1805437;77;21687;-79
2021/06/27 08:34:16;;;;;;;7.77;5.23;;;;;;;17.81;75.75;93251.02;1878306;74;22229;-79
2021/06/27 08:36:44;;;;;;;5.05;4.17;;;;;;;17.76;75.31;93259.08;1760926;80;21071;-85
2021/06/27 08:39:11;;;;;;;6.65;4.70;;;;;;;17.73;74.93;93260.70;1798375;78;21077;-81
2021/06/27 08:41:43;;;;;;;5.58;4.87;;;;;;;17.71;75.52;93259.78;1816042;78;21278;-82
2021/06/27 08:44:20;;;;;;;6.47;4.60;;;;;;;17.72;76.00;93266.05;1711397;79;21636;-78
2021/06/27 08:46:58;;;;;;;9.95;5.85;;;;;;;17.68;75.71;93268.15;1691981;83;21093;-78
2021/06/27 08:49:26;;;;;;;5.45;4.97;;;;;;;17.66;75.95;93272.70;1794761;78;20978;-78
2021/06/27 08:51:52;;;;;;;5.78;4.75;;;;;;;17.68;76.12;93268.91;1787209;77;21303;-78
2021/06/27 08:54:19;;;;;;;6.72;5.03;;;;;;;17.68;77.06;93266.77;1817683;77;21798;-84
2021/06/27 08:56:49;;;;;;;4.50;4.10;;;;;;;17.73;77.25;93279.95;1780126;79;21608;-81
2021/06/27 08:59:27;;;;;;;5.12;3.90;;;;;;;17.79;76.61;93271.34;1753647;80;21156;-81
2021/06/27 09:02:52;;;;;;;4.17;3.87;;;;;;;17.95;74.76;93272.54;1840454;75;23307;-87
2021/06/27 09:05:24;;;;;;;6.20;4.15;;;;;;;18.00;74.73;93271.81;1813518;77;20994;-84
2021/06/27 09:07:55;;;;;;;4.92;4.50;;;;;;;18.04;74.17;93268.33;1753075;80;21773;-87
2021/06/27 09:18:20;;;;;;;4.28;3.90;;;;;;;18.51;72.61;93253.08;1789781;79;23383;-81
2021/06/27 09:20:51;;;;;;;4.35;3.90;;;;;;;18.59;73.09;93256.33;1790609;79;21996;-82
2021/06/27 09:23:36;;;;;;;4.80;3.80;;;;;;;18.67;72.92;93257.59;1792794;79;21078;-81
2021/06/27 09:26:44;;;;;;;5.12;4.22;;;;;;;18.71;71.88;93250.61;1777935;79;21057;-83
2021/06/27 09:32:34;;;;;;;4.37;3.98;;;;;;;18.75;72.88;93252.01;1807211;76;21097;-80
2021/06/27 09:35:10;;;;;;;6.25;4.45;;;;;;;18.85;72.66;93260.48;1720107;81;21081;-81
2021/06/27 09:37:41;;;;;;;4.15;3.80;;;;;;;18.95;70.25;93257.14;1725166;79;22406;-83
2021/06/27 09:40:09;;;;;;;4.08;3.67;;;;;;;19.09;70.37;93250.32;1781725;79;21057;-82
2021/06/27 09:42:46;;;;;;;;;;;;;;;;;;;;;
2021/06/27 09:45:09;;;;;;;4.35;4.05;;;;;;;19.22;70.53;93253.75;1726921;81;21077;-82
2021/06/27 09:48:07;;;;;;;4.35;3.95;;;;;;;19.24;69.80;93261.55;1762589;78;21069;-81
2021/06/27 09:50:37;;;;;;;7.35;4.65;;;;;;;19.21;68.53;93252.20;1806938;77;21211;-79
2021/06/27 09:53:06;;;;;;;6.10;4.80;;;;;;;19.17;68.34;93252.34;1797202;77;21967;-79
2021/06/27 09:55:35;;;;;;;6.30;5.30;;;;;;;19.15;68.35;93248.52;1797090;77;21103;-78
2021/06/27 09:58:17;;;;;;;4.92;4.37;;;;;;;19.22;67.41;93249.62;1843987;77;21057;-80
2021/06/27 10:00:45;;;;;;;6.10;4.67;;;;;;;19.27;66.00;93246.25;1808655;76;21451;-78
2021/06/27 10:03:13;;;;;;;15.05;9.80;;;;;;;19.36;65.92;93239.99;1825983;76;21077;-77
2021/06/27 10:05:48;;;;;;;;;;;;;;;19.46;66.49;93242.94;1800233;77;21057;-79
2021/06/27 10:08:29;;;;;;;8.28;5.12;;;;;;;19.54;66.09;93244.17;1803152;78;20187;-76
2021/06/27 10:11:17;;;;;;;6.40;4.25;;;;;;;19.54;64.47;93237.89;1783644;77;21069;-78
2021/06/27 10:16:43;;;;;;;8.10;4.85;;;;;;;19.55;66.86;93245.70;1804096;78;21047;-80
2021/06/27 10:19:16;;;;;;;4.83;4.25;;;;;;;19.60;65.98;93244.36;1708824;79;21164;-78
2021/06/27 10:21:43;;;;;;;4.60;4.17;;;;;;;19.53;64.29;93240.51;1781993;79;21017;-80
2021/06/27 10:24:14;;;;;;;6.80;4.22;;;;;;;19.42;63.86;93243.69;1812207;77;21080;-81
2021/06/27 10:26:43;;;;;;;5.97;4.10;;;;;;;19.34;65.68;93238.32;1759710;79;21008;-80
2021/06/27 10:29:10;;;;;;;4.22;3.83;;;;;;;19.32;66.87;93233.24;1703507;78;21129;-82
2021/06/27 10:31:37;;;;;;;5.58;2.98;;;;;;;19.39;67.64;93233.58;1799876;78;21110;-81
2021/06/27 10:34:04;;;;;;;5.03;3.75;;;;;;;19.43;66.63;93232.81;1789662;79;21101;-81
2021/06/27 10:36:34;;;;;;;3.72;3.40;;;;;;;19.47;66.51;93230.67;1802860;78;21014;-80
2021/06/27 10:39:09;;;;;;;3.87;3.58;;;;;;;19.53;66.67;93227.48;1772395;79;21077;-80
2021/06/27 10:42:01;;;;;;;4.05;3.67;;;;;;;19.61;64.84;93226.58;1768745;79;21101;-81
2021/06/27 10:44:40;;;;;;;4.67;4.28;;;;;;;19.63;64.34;93215.28;1765585;77;20942;-80
2021/06/27 10:47:13;;;;;;;3.62;3.30;;;;;;;19.67;65.87;93227.55;1819245;77;21057;-80
2021/06/27 10:50:02;;;;;;;4.50;3.45;;;;;;;19.73;66.26;93214.66;1845474;76;21627;-81
2021/06/27 10:52:59;;;;;;;7.45;3.40;;;;;;;19.77;65.83;93220.03;1833490;76;21048;-82
2021/06/27 10:55:32;;;;;;;5.75;3.92;;;;;;;19.76;65.24;93208.84;1816115;77;21842;-81
2021/06/27 11:00:57;;;;;;;3.40;3.10;;;;;;;19.82;65.16;93197.34;1808724;77;21063;-82
2021/06/27 11:03:43;;;;;;;4.25;3.72;;;;;;;19.87;65.55;93199.50;1819520;78;21049;-79
2021/06/27 11:06:33;;;;;;;4.97;3.20;;;;;;;19.93;66.39;93193.50;1853476;75;21033;-82
2021/06/27 11:09:08;;;;;;;3.17;2.87;;;;;;;20.03;65.42;93197.80;1833067;76;21111;-81
2021/06/27 11:11:52;;;;;;;2.80;2.60;;;;;;;20.15;64.32;93194.72;1806243;75;21033;-80
2021/06/27 11:14:21;;;;;;;5.40;3.50;;;;;;;20.24;64.40;93193.34;1845667;76;21820;-82
2021/06/27 11:17:05;;;;;;;5.62;3.67;;;;;;;20.36;62.19;93192.40;1850830;75;21038;-82
2021/06/27 11:19:35;;;;;;;5.10;3.75;;;;;;;20.43;62.54;93195.46;1835456;76;21108;-83
2021/06/27 11:22:15;;;;;;;4.17;3.75;;;;;;;20.50;63.10;93199.31;1835892;76;21324;-82
2021/06/27 11:24:41;;;;;;;3.77;3.47;;;;;;;20.59;64.80;93200.66;1849468;76;21005;-82
2021/06/27 11:27:36;;;;;;;3.87;3.47;;;;;;;20.69;64.21;93198.64;1838674;76;21000;-81
2021/06/27 11:30:17;;;;;;;3.98;3.67;;;;;;;20.74;62.65;93203.53;1811581;77;21038;-82
2021/06/27 11:32:44;;;;;;;3.50;3.30;;;;;;;20.81;66.03;93202.44;1736541;81;21112;-84
2021/06/27 11:35:35;;;;;;;3.58;3.27;;;;;;;20.88;61.54;93195.20;1774511;79;21136;-82
2021/06/27 11:38:05;;;;;;;5.47;4.10;;;;;;;20.87;60.29;93193.66;1791479;78;21484;-82
2021/06/27 11:40:54;;;;;;;5.33;3.72;;;;;;;20.82;60.13;93185.39;1785763;79;21381;-81
2021/06/27 11:43:15;;;;;;;4.45;4.08;;;;;;;20.78;60.91;93180.64;1755522;79;21050;-80
2021/06/27 11:45:44;;;;;;;3.92;3.60;;;;;;;20.69;60.61;93182.07;1737098;81;21118;-80
2021/06/27 11:48:10;;;;;;;4.37;3.60;;;;;;;20.56;61.66;93180.87;1789010;79;21843;-82
2021/06/27 11:50:41;;;;;;;4.10;3.70;;;;;;;20.53;62.34;93180.41;1743355;81;21284;-80
2021/06/27 11:53:14;;;;;;;4.30;3.95;;;;;;;20.58;65.30;93175.66;1755572;77;21050;-79
2021/06/27 11:55:45;;;;;;;5.12;3.95;;;;;;;20.69;62.25;93175.16;1860673;75;21017;-83
2021/06/27 11:58:20;;;;;;;6.60;4.05;;;;;;;20.78;62.38;93168.83;1865381;75;21415;-81
2021/06/27 12:00:50;;;;;;;5.75;4.05;;;;;;;20.86;63.46;93170.78;1813995;77;21774;-85
2021/06/27 12:03:20;;;;;;;6.28;3.98;;;;;;;20.97;64.16;93167.52;1821791;77;21380;-81
2021/06/27 12:05:54;;;;;;;4.17;3.87;;;;;;;21.08;64.15;93175.30;1843946;76;21023;-82
2021/06/27 12:08:22;;;;;;;5.17;3.87;;;;;;;21.12;63.54;93172.37;1855235;76;21073;-83